sensor_id;sensor_type;location;lat;lon;timestamp;pressure;altitude;pressure_sealevel;temperature;humidity
54554;BME280;40450;55.848;-3.572;2023-06-24T00:01:32;99512.81;;;15.95;98.50
54554;BME280;40450;55.848;-3.572;2023-06-24T00:04:02;99520.13;;;16.28;97.97
54554;BME280;40450;55.848;-3.572;2023-06-24T00:06:32;99523.21;;;15.55;99.52
54554;BME280;40450;55.848;-3.572;2023-06-24T00:09:03;99519.36;;;16.56;98.07
54554;BME280;40450;55.848;-3.572;2023-06-24T00:11:33;99513.05;;;16.27;98.08
54554;BME280;40450;55.848;-3.572;2023-06-24T00:14:03;99517.29;;;15.96;98.75
54554;BME280;40450;55.848;-3.572;2023-06-24T00:16:34;99519.66;;;15.92;98.83
54554;BME280;40450;55.848;-3.572;2023-06-24T00:19:04;99526.29;;;15.64;99.70
54554;BME280;40450;55.848;-3.572;2023-06-24T00:21:34;99525.16;;;15.66;99.72
54554;BME280;40450;55.848;-3.572;2023-06-24T00:24:05;99523.47;;;15.09;100.00
54554;BME280;40450;55.848;-3.572;2023-06-24T00:26:35;99516.16;;;15.25;100.00
54554;BME280;40450;55.848;-3.572;2023-06-24T00:29:06;99518.57;;;15.15;100.00
54554;BME280;40450;55.848;-3.572;2023-06-24T00:31:36;99519.68;;;15.01;100.00
54554;BME280;40450;55.848;-3.572;2023-06-24T00:34:06;99519.47;;;15.28;100.00
54554;BME280;40450;55.848;-3.572;2023-06-24T00:36:36;99520.75;;;14.48;100.00
54554;BME280;40450;55.848;-3.572;2023-06-24T00:39:07;99525.00;;;14.80;100.00
54554;BME280;40450;55.848;-3.572;2023-06-24T00:41:37;99525.60;;;15.44;100.00
54554;BME280;40450;55.848;-3.572;2023-06-24T00:44:07;99526.55;;;15.10;100.00
54554;BME280;40450;55.848;-3.572;2023-06-24T00:46:37;99532.23;;;15.44;100.00
54554;BME280;40450;55.848;-3.572;2023-06-24T00:49:07;99529.56;;;15.95;99.65
54554;BME280;40450;55.848;-3.572;2023-06-24T00:51:38;99533.38;;;16.32;98.74
54554;BME280;40450;55.848;-3.572;2023-06-24T00:54:08;99532.81;;;16.32;98.45
54554;BME280;40450;55.848;-3.572;2023-06-24T00:56:38;99533.93;;;16.40;98.31
54554;BME280;40450;55.848;-3.572;2023-06-24T00:59:11;99538.21;;;16.54;97.98
54554;BME280;40450;55.848;-3.572;2023-06-24T01:01:40;99535.22;;;16.56;97.74
54554;BME280;40450;55.848;-3.572;2023-06-24T01:04:10;99538.22;;;15.59;99.83
54554;BME280;40450;55.848;-3.572;2023-06-24T01:06:40;99531.83;;;15.53;100.00
54554;BME280;40450;55.848;-3.572;2023-06-24T01:09:11;99529.35;;;15.95;99.42
54554;BME280;40450;55.848;-3.572;2023-06-24T01:11:41;99530.32;;;15.81;99.82
54554;BME280;40450;55.848;-3.572;2023-06-24T01:14:11;99528.85;;;15.83;99.82
54554;BME280;40450;55.848;-3.572;2023-06-24T01:16:48;99529.13;;;15.54;100.00
54554;BME280;40450;55.848;-3.572;2023-06-24T01:19:24;99527.41;;;15.92;99.65
54554;BME280;40450;55.848;-3.572;2023-06-24T01:21:48;99523.46;;;15.70;100.00
54554;BME280;40450;55.848;-3.572;2023-06-24T01:26:57;99518.71;;;16.09;98.92
54554;BME280;40450;55.848;-3.572;2023-06-24T01:31:47;99521.24;;;15.84;99.45
54554;BME280;40450;55.848;-3.572;2023-06-24T01:34:22;99516.41;;;16.08;98.71
54554;BME280;40450;55.848;-3.572;2023-06-24T01:36:49;99520.99;;;16.08;98.63
54554;BME280;40450;55.848;-3.572;2023-06-24T01:39:18;99516.34;;;16.02;98.79
54554;BME280;40450;55.848;-3.572;2023-06-24T01:41:49;99516.98;;;16.04;98.70
54554;BME280;40450;55.848;-3.572;2023-06-24T01:44:16;99521.02;;;16.04;98.75
54554;BME280;40450;55.848;-3.572;2023-06-24T01:46:48;99521.88;;;16.18;98.21
54554;BME280;40450;55.848;-3.572;2023-06-24T01:49:16;99522.54;;;16.15;98.04
54554;BME280;40450;55.848;-3.572;2023-06-24T01:51:47;99514.90;;;17.06;96.83
54554;BME280;40450;55.848;-3.572;2023-06-24T01:54:17;99515.15;;;16.74;96.63
54554;BME280;40450;55.848;-3.572;2023-06-24T01:56:48;99515.33;;;17.21;95.31
54554;BME280;40450;55.848;-3.572;2023-06-24T01:59:19;99510.80;;;16.74;96.20
54554;BME280;40450;55.848;-3.572;2023-06-24T02:01:48;99509.78;;;16.84;95.98
54554;BME280;40450;55.848;-3.572;2023-06-24T02:04:19;99511.36;;;17.01;95.72
54554;BME280;40450;55.848;-3.572;2023-06-24T02:06:50;99506.73;;;16.85;96.16
54554;BME280;40450;55.848;-3.572;2023-06-24T02:09:20;99502.81;;;16.73;96.59
54554;BME280;40450;55.848;-3.572;2023-06-24T02:11:50;99503.45;;;17.09;95.56
54554;BME280;40450;55.848;-3.572;2023-06-24T02:14:20;99506.73;;;17.32;94.64
54554;BME280;40450;55.848;-3.572;2023-06-24T02:16:51;99509.31;;;16.74;95.74
54554;BME280;40450;55.848;-3.572;2023-06-24T02:19:21;99513.97;;;16.55;96.52
54554;BME280;40450;55.848;-3.572;2023-06-24T02:21:53;99519.26;;;16.25;97.43
54554;BME280;40450;55.848;-3.572;2023-06-24T02:24:23;99521.52;;;16.39;97.08
54554;BME280;40450;55.848;-3.572;2023-06-24T02:26:53;99521.87;;;16.76;96.15
54554;BME280;40450;55.848;-3.572;2023-06-24T02:29:23;99522.08;;;16.97;95.26
54554;BME280;40450;55.848;-3.572;2023-06-24T02:31:53;99521.20;;;17.02;95.22
54554;BME280;40450;55.848;-3.572;2023-06-24T02:34:23;99519.77;;;16.82;95.66
54554;BME280;40450;55.848;-3.572;2023-06-24T02:36:53;99519.65;;;17.07;95.21
54554;BME280;40450;55.848;-3.572;2023-06-24T02:39:24;99520.00;;;16.88;95.42
54554;BME280;40450;55.848;-3.572;2023-06-24T02:41:54;99517.30;;;17.24;94.46
54554;BME280;40450;55.848;-3.572;2023-06-24T02:44:25;99518.09;;;17.32;93.83
54554;BME280;40450;55.848;-3.572;2023-06-24T02:46:56;99519.44;;;17.58;93.19
54554;BME280;40450;55.848;-3.572;2023-06-24T02:49:25;99517.34;;;17.44;93.21
54554;BME280;40450;55.848;-3.572;2023-06-24T02:51:56;99516.06;;;17.67;92.56
54554;BME280;40450;55.848;-3.572;2023-06-24T02:54:26;99515.15;;;17.59;92.77
54554;BME280;40450;55.848;-3.572;2023-06-24T02:56:57;99515.42;;;17.63;92.98
54554;BME280;40450;55.848;-3.572;2023-06-24T02:59:27;99512.62;;;17.38;93.31
54554;BME280;40450;55.848;-3.572;2023-06-24T03:01:57;99516.37;;;17.34;93.50
54554;BME280;40450;55.848;-3.572;2023-06-24T03:04:28;99522.21;;;17.65;93.36
54554;BME280;40450;55.848;-3.572;2023-06-24T03:06:57;99522.29;;;17.08;93.95
54554;BME280;40450;55.848;-3.572;2023-06-24T03:09:28;99524.31;;;17.37;93.51
54554;BME280;40450;55.848;-3.572;2023-06-24T03:11:58;99524.21;;;17.18;94.08
54554;BME280;40450;55.848;-3.572;2023-06-24T03:14:28;99528.65;;;17.26;93.63
54554;BME280;40450;55.848;-3.572;2023-06-24T03:16:59;99526.76;;;18.03;92.24
54554;BME280;40450;55.848;-3.572;2023-06-24T03:19:29;99530.71;;;17.70;92.38
54554;BME280;40450;55.848;-3.572;2023-06-24T03:21:59;99529.15;;;17.61;92.56
54554;BME280;40450;55.848;-3.572;2023-06-24T03:24:30;99528.40;;;17.28;93.49
54554;BME280;40450;55.848;-3.572;2023-06-24T03:27:00;99533.63;;;17.81;92.05
54554;BME280;40450;55.848;-3.572;2023-06-24T03:29:30;99529.53;;;17.17;94.09
54554;BME280;40450;55.848;-3.572;2023-06-24T03:32:00;99533.92;;;17.67;92.63
54554;BME280;40450;55.848;-3.572;2023-06-24T03:34:31;99534.10;;;17.83;92.48
54554;BME280;40450;55.848;-3.572;2023-06-24T03:37:01;99534.53;;;18.00;91.57
54554;BME280;40450;55.848;-3.572;2023-06-24T03:39:31;99540.34;;;17.74;91.88
54554;BME280;40450;55.848;-3.572;2023-06-24T03:42:02;99543.97;;;17.66;92.67
54554;BME280;40450;55.848;-3.572;2023-06-24T03:44:32;99541.94;;;17.88;91.88
54554;BME280;40450;55.848;-3.572;2023-06-24T03:47:03;99539.56;;;18.13;91.12
54554;BME280;40450;55.848;-3.572;2023-06-24T03:49:33;99537.04;;;18.49;90.07
54554;BME280;40450;55.848;-3.572;2023-06-24T03:52:04;99541.02;;;18.66;88.87
54554;BME280;40450;55.848;-3.572;2023-06-24T03:54:33;99541.48;;;18.55;89.36
54554;BME280;40450;55.848;-3.572;2023-06-24T03:57:04;99550.77;;;17.81;91.67
54554;BME280;40450;55.848;-3.572;2023-06-24T03:59:34;99549.40;;;17.13;94.01
54554;BME280;40450;55.848;-3.572;2023-06-24T04:02:05;99552.43;;;17.75;92.39
54554;BME280;40450;55.848;-3.572;2023-06-24T04:04:35;99550.69;;;18.08;91.63
54554;BME280;40450;55.848;-3.572;2023-06-24T04:07:05;99554.51;;;18.08;91.14
54554;BME280;40450;55.848;-3.572;2023-06-24T04:09:35;99551.40;;;18.30;90.75
54554;BME280;40450;55.848;-3.572;2023-06-24T04:12:06;99559.10;;;17.88;91.99
54554;BME280;40450;55.848;-3.572;2023-06-24T04:14:36;99561.91;;;18.29;90.83
54554;BME280;40450;55.848;-3.572;2023-06-24T04:17:06;99563.32;;;18.23;90.82
54554;BME280;40450;55.848;-3.572;2023-06-24T04:19:36;99565.47;;;17.76;92.44
54554;BME280;40450;55.848;-3.572;2023-06-24T04:22:07;99565.38;;;17.26;94.17
54554;BME280;40450;55.848;-3.572;2023-06-24T04:24:37;99570.81;;;16.87;95.71
54554;BME280;40450;55.848;-3.572;2023-06-24T04:27:08;99576.53;;;17.69;94.06
54554;BME280;40450;55.848;-3.572;2023-06-24T04:29:38;99570.89;;;17.31;94.12
54554;BME280;40450;55.848;-3.572;2023-06-24T04:32:08;99573.71;;;17.64;94.18
54554;BME280;40450;55.848;-3.572;2023-06-24T04:34:38;99576.85;;;17.70;93.39
54554;BME280;40450;55.848;-3.572;2023-06-24T04:37:09;99577.62;;;17.83;93.20
54554;BME280;40450;55.848;-3.572;2023-06-24T04:39:39;99567.63;;;18.42;91.14
54554;BME280;40450;55.848;-3.572;2023-06-24T04:42:09;99567.83;;;19.14;89.87
54554;BME280;40450;55.848;-3.572;2023-06-24T04:44:39;99568.23;;;19.08;88.67
54554;BME280;40450;55.848;-3.572;2023-06-24T04:47:10;99571.38;;;19.13;88.01
54554;BME280;40450;55.848;-3.572;2023-06-24T04:49:40;99576.22;;;19.04;88.59
54554;BME280;40450;55.848;-3.572;2023-06-24T04:52:11;99571.34;;;19.09;88.15
54554;BME280;40450;55.848;-3.572;2023-06-24T04:54:41;99572.57;;;18.93;88.56
54554;BME280;40450;55.848;-3.572;2023-06-24T04:59:41;99575.38;;;18.97;88.56
54554;BME280;40450;55.848;-3.572;2023-06-24T05:02:12;99578.58;;;19.06;88.17
54554;BME280;40450;55.848;-3.572;2023-06-24T05:04:43;99580.04;;;19.50;87.95
54554;BME280;40450;55.848;-3.572;2023-06-24T05:07:13;99584.87;;;19.10;88.22
54554;BME280;40450;55.848;-3.572;2023-06-24T05:09:44;99586.23;;;18.64;89.36
54554;BME280;40450;55.848;-3.572;2023-06-24T05:12:13;99590.71;;;18.10;91.84
54554;BME280;40450;55.848;-3.572;2023-06-24T05:14:44;99590.79;;;18.17;91.81
54554;BME280;40450;55.848;-3.572;2023-06-24T05:17:14;99592.51;;;18.34;91.60
54554;BME280;40450;55.848;-3.572;2023-06-24T05:19:44;99592.55;;;18.51;90.86
54554;BME280;40450;55.848;-3.572;2023-06-24T05:22:15;99599.59;;;18.39;91.47
54554;BME280;40450;55.848;-3.572;2023-06-24T05:24:45;99605.26;;;18.26;91.77
54554;BME280;40450;55.848;-3.572;2023-06-24T05:27:15;99600.68;;;17.65;93.85
54554;BME280;40450;55.848;-3.572;2023-06-24T05:29:46;99598.48;;;17.62;94.33
54554;BME280;40450;55.848;-3.572;2023-06-24T05:32:16;99597.00;;;18.22;93.30
54554;BME280;40450;55.848;-3.572;2023-06-24T05:34:46;99599.65;;;18.10;93.50
54554;BME280;40450;55.848;-3.572;2023-06-24T05:37:17;99600.77;;;18.27;93.25
54554;BME280;40450;55.848;-3.572;2023-06-24T05:39:47;99601.10;;;18.05;93.88
54554;BME280;40450;55.848;-3.572;2023-06-24T05:42:17;99600.33;;;18.30;93.77
54554;BME280;40450;55.848;-3.572;2023-06-24T05:44:47;99596.30;;;18.19;93.46
54554;BME280;40450;55.848;-3.572;2023-06-24T05:47:18;99589.87;;;19.28;91.67
54554;BME280;40450;55.848;-3.572;2023-06-24T05:49:48;99590.56;;;19.35;90.62
54554;BME280;40450;55.848;-3.572;2023-06-24T05:52:18;99598.57;;;18.32;93.44
54554;BME280;40450;55.848;-3.572;2023-06-24T05:54:49;99598.26;;;17.78;94.87
54554;BME280;40450;55.848;-3.572;2023-06-24T05:57:19;99601.51;;;17.96;94.55
54554;BME280;40450;55.848;-3.572;2023-06-24T05:59:49;99599.46;;;18.06;94.40
54554;BME280;40450;55.848;-3.572;2023-06-24T06:02:20;99600.29;;;18.41;93.26
54554;BME280;40450;55.848;-3.572;2023-06-24T06:04:50;99604.38;;;17.09;96.09
54554;BME280;40450;55.848;-3.572;2023-06-24T06:07:20;99610.86;;;17.79;94.82
54554;BME280;40450;55.848;-3.572;2023-06-24T06:09:51;99610.66;;;17.91;94.15
54554;BME280;40450;55.848;-3.572;2023-06-24T06:12:21;99613.40;;;17.48;95.08
54554;BME280;40450;55.848;-3.572;2023-06-24T06:14:56;99620.05;;;17.80;94.83
54554;BME280;40450;55.848;-3.572;2023-06-24T06:17:21;99620.24;;;17.99;94.43
54554;BME280;40450;55.848;-3.572;2023-06-24T06:19:52;99626.16;;;17.63;94.70
54554;BME280;40450;55.848;-3.572;2023-06-24T06:22:22;99625.42;;;17.66;94.78
54554;BME280;40450;55.848;-3.572;2023-06-24T06:24:52;99626.54;;;17.83;93.88
54554;BME280;40450;55.848;-3.572;2023-06-24T06:27:23;99628.70;;;17.93;93.73
54554;BME280;40450;55.848;-3.572;2023-06-24T06:29:53;99627.93;;;18.18;93.06
54554;BME280;40450;55.848;-3.572;2023-06-24T06:32:23;99631.31;;;18.45;92.25
54554;BME280;40450;55.848;-3.572;2023-06-24T06:34:54;99632.25;;;18.73;91.70
54554;BME280;40450;55.848;-3.572;2023-06-24T06:37:24;99632.39;;;18.47;91.61
54554;BME280;40450;55.848;-3.572;2023-06-24T06:39:54;99634.53;;;18.29;92.60
54554;BME280;40450;55.848;-3.572;2023-06-24T06:42:25;99631.75;;;17.85;93.86
54554;BME280;40450;55.848;-3.572;2023-06-24T06:44:55;99629.49;;;18.19;93.20
54554;BME280;40450;55.848;-3.572;2023-06-24T06:47:25;99632.30;;;18.82;91.88
54554;BME280;40450;55.848;-3.572;2023-06-24T06:49:55;99633.18;;;18.18;92.43
54554;BME280;40450;55.848;-3.572;2023-06-24T06:52:26;99624.61;;;18.62;91.37
54554;BME280;40450;55.848;-3.572;2023-06-24T06:54:56;99630.84;;;18.35;92.33
54554;BME280;40450;55.848;-3.572;2023-06-24T06:57:26;99633.17;;;18.33;92.21
54554;BME280;40450;55.848;-3.572;2023-06-24T06:59:57;99636.16;;;17.83;93.35
54554;BME280;40450;55.848;-3.572;2023-06-24T07:02:27;99643.14;;;18.39;92.15
54554;BME280;40450;55.848;-3.572;2023-06-24T07:04:57;99644.08;;;18.28;91.77
54554;BME280;40450;55.848;-3.572;2023-06-24T07:07:28;99637.08;;;18.39;91.56
54554;BME280;40450;55.848;-3.572;2023-06-24T07:09:58;99638.98;;;18.46;91.47
54554;BME280;40450;55.848;-3.572;2023-06-24T07:12:28;99641.37;;;18.58;90.87
54554;BME280;40450;55.848;-3.572;2023-06-24T07:14:58;99643.13;;;18.25;91.84
54554;BME280;40450;55.848;-3.572;2023-06-24T07:17:29;99642.99;;;18.46;91.93
54554;BME280;40450;55.848;-3.572;2023-06-24T07:19:59;99643.10;;;18.78;90.87
54554;BME280;40450;55.848;-3.572;2023-06-24T07:22:29;99641.25;;;19.28;89.80
54554;BME280;40450;55.848;-3.572;2023-06-24T07:25:00;99637.88;;;19.39;88.82
54554;BME280;40450;55.848;-3.572;2023-06-24T07:27:30;99628.45;;;20.05;87.56
54554;BME280;40450;55.848;-3.572;2023-06-24T07:30:00;99628.00;;;19.37;87.86
54554;BME280;40450;55.848;-3.572;2023-06-24T07:32:31;99637.33;;;18.48;90.40
54554;BME280;40450;55.848;-3.572;2023-06-24T07:35:01;99636.80;;;18.87;89.73
54554;BME280;40450;55.848;-3.572;2023-06-24T07:37:31;99635.29;;;18.80;89.77
54554;BME280;40450;55.848;-3.572;2023-06-24T07:40:02;99643.69;;;18.35;90.64
54554;BME280;40450;55.848;-3.572;2023-06-24T07:42:33;99639.92;;;18.67;89.82
54554;BME280;40450;55.848;-3.572;2023-06-24T07:45:04;99645.36;;;18.88;89.82
54554;BME280;40450;55.848;-3.572;2023-06-24T07:47:51;99641.97;;;19.01;89.69
54554;BME280;40450;55.848;-3.572;2023-06-24T07:50:04;99645.03;;;18.17;91.53
54554;BME280;40450;55.848;-3.572;2023-06-24T07:52:34;99647.43;;;18.36;91.35
54554;BME280;40450;55.848;-3.572;2023-06-24T07:55:05;99649.15;;;18.60;91.25
54554;BME280;40450;55.848;-3.572;2023-06-24T07:57:35;99655.44;;;18.86;90.61
54554;BME280;40450;55.848;-3.572;2023-06-24T08:00:07;99657.24;;;18.56;91.19
54554;BME280;40450;55.848;-3.572;2023-06-24T08:02:36;99649.72;;;19.27;89.74
54554;BME280;40450;55.848;-3.572;2023-06-24T08:05:07;99655.13;;;18.84;89.85
54554;BME280;40450;55.848;-3.572;2023-06-24T08:07:37;99651.70;;;18.42;90.99
54554;BME280;40450;55.848;-3.572;2023-06-24T08:10:07;99649.68;;;19.17;90.65
54554;BME280;40450;55.848;-3.572;2023-06-24T08:12:38;99651.51;;;19.08;89.30
54554;BME280;40450;55.848;-3.572;2023-06-24T08:15:09;99657.03;;;18.95;89.98
54554;BME280;40450;55.848;-3.572;2023-06-24T08:17:38;99653.37;;;19.12;89.65
54554;BME280;40450;55.848;-3.572;2023-06-24T08:20:10;99649.97;;;19.67;88.83
54554;BME280;40450;55.848;-3.572;2023-06-24T08:22:39;99649.85;;;20.06;87.31
54554;BME280;40450;55.848;-3.572;2023-06-24T08:25:10;99651.72;;;20.07;86.75
54554;BME280;40450;55.848;-3.572;2023-06-24T08:27:40;99654.10;;;19.92;85.79
54554;BME280;40450;55.848;-3.572;2023-06-24T08:30:11;99654.46;;;19.16;88.32
54554;BME280;40450;55.848;-3.572;2023-06-24T08:32:41;99653.62;;;18.57;89.69
54554;BME280;40450;55.848;-3.572;2023-06-24T08:35:11;99650.84;;;18.20;91.81
54554;BME280;40450;55.848;-3.572;2023-06-24T08:37:41;99657.74;;;18.25;91.86
54554;BME280;40450;55.848;-3.572;2023-06-24T08:40:12;99654.03;;;18.72;91.33
54554;BME280;40450;55.848;-3.572;2023-06-24T08:42:43;99649.99;;;18.85;90.96
54554;BME280;40450;55.848;-3.572;2023-06-24T08:45:12;99647.37;;;19.63;89.49
54554;BME280;40450;55.848;-3.572;2023-06-24T08:47:43;99646.30;;;20.11;87.90
54554;BME280;40450;55.848;-3.572;2023-06-24T08:50:13;99653.10;;;18.44;90.74
54554;BME280;40450;55.848;-3.572;2023-06-24T08:52:48;99646.11;;;18.75;90.32
54554;BME280;40450;55.848;-3.572;2023-06-24T08:55:17;99647.67;;;18.16;92.25
54554;BME280;40450;55.848;-3.572;2023-06-24T08:57:44;99655.86;;;18.08;92.06
54554;BME280;40450;55.848;-3.572;2023-06-24T09:00:14;99653.11;;;18.37;91.59
54554;BME280;40450;55.848;-3.572;2023-06-24T09:02:44;99651.85;;;18.39;91.30
54554;BME280;40450;55.848;-3.572;2023-06-24T09:05:14;99647.93;;;19.21;89.10
54554;BME280;40450;55.848;-3.572;2023-06-24T09:07:45;99645.81;;;19.10;89.83
54554;BME280;40450;55.848;-3.572;2023-06-24T09:12:46;99645.78;;;18.97;89.54
54554;BME280;40450;55.848;-3.572;2023-06-24T09:15:16;99656.04;;;18.10;91.98
54554;BME280;40450;55.848;-3.572;2023-06-24T09:17:46;99657.64;;;18.72;90.91
54554;BME280;40450;55.848;-3.572;2023-06-24T09:20:19;99656.73;;;19.04;88.92
54554;BME280;40450;55.848;-3.572;2023-06-24T09:22:47;99661.48;;;18.37;88.71
54554;BME280;40450;55.848;-3.572;2023-06-24T09:25:18;99659.61;;;18.53;88.97
54554;BME280;40450;55.848;-3.572;2023-06-24T09:27:48;99659.73;;;18.55;89.38
54554;BME280;40450;55.848;-3.572;2023-06-24T09:30:19;99656.45;;;18.41;89.51
54554;BME280;40450;55.848;-3.572;2023-06-24T09:32:48;99660.59;;;18.66;90.04
54554;BME280;40450;55.848;-3.572;2023-06-24T09:35:19;99650.53;;;19.53;87.17
54554;BME280;40450;55.848;-3.572;2023-06-24T09:37:50;99656.92;;;18.82;88.79
54554;BME280;40450;55.848;-3.572;2023-06-24T09:40:19;99660.32;;;18.67;89.68
54554;BME280;40450;55.848;-3.572;2023-06-24T09:42:51;99664.79;;;18.27;90.49
54554;BME280;40450;55.848;-3.572;2023-06-24T09:45:23;99665.71;;;17.84;91.75
54554;BME280;40450;55.848;-3.572;2023-06-24T09:47:50;99660.07;;;18.36;90.46
54554;BME280;40450;55.848;-3.572;2023-06-24T09:50:21;99658.11;;;18.33;91.05
54554;BME280;40450;55.848;-3.572;2023-06-24T09:52:52;99657.49;;;18.86;90.18
54554;BME280;40450;55.848;-3.572;2023-06-24T09:55:21;99650.54;;;19.55;87.96
54554;BME280;40450;55.848;-3.572;2023-06-24T09:57:54;99658.68;;;19.01;89.24
54554;BME280;40450;55.848;-3.572;2023-06-24T10:00:22;99656.72;;;19.90;87.29
54554;BME280;40450;55.848;-3.572;2023-06-24T10:02:53;99661.81;;;19.34;86.82
54554;BME280;40450;55.848;-3.572;2023-06-24T10:05:22;99665.90;;;19.18;87.47
54554;BME280;40450;55.848;-3.572;2023-06-24T10:07:52;99668.54;;;18.90;88.32
54554;BME280;40450;55.848;-3.572;2023-06-24T10:10:23;99668.94;;;18.76;89.29
54554;BME280;40450;55.848;-3.572;2023-06-24T10:12:53;99666.04;;;19.45;87.87
54554;BME280;40450;55.848;-3.572;2023-06-24T10:15:23;99671.27;;;19.25;86.97
54554;BME280;40450;55.848;-3.572;2023-06-24T10:17:54;99667.10;;;19.49;86.57
54554;BME280;40450;55.848;-3.572;2023-06-24T10:20:25;99667.22;;;20.23;84.08
54554;BME280;40450;55.848;-3.572;2023-06-24T10:22:54;99667.02;;;20.65;82.97
54554;BME280;40450;55.848;-3.572;2023-06-24T10:25:25;99673.06;;;21.03;82.83
54554;BME280;40450;55.848;-3.572;2023-06-24T10:27:55;99670.20;;;21.37;79.88
54554;BME280;40450;55.848;-3.572;2023-06-24T10:30:25;99679.03;;;21.18;80.45
54554;BME280;40450;55.848;-3.572;2023-06-24T10:32:56;99678.91;;;20.74;83.42
54554;BME280;40450;55.848;-3.572;2023-06-24T10:35:27;99679.92;;;20.87;82.79
54554;BME280;40450;55.848;-3.572;2023-06-24T10:37:57;99674.59;;;20.95;81.84
54554;BME280;40450;55.848;-3.572;2023-06-24T10:40:34;99675.35;;;21.60;81.52
54554;BME280;40450;55.848;-3.572;2023-06-24T10:42:57;99674.94;;;21.82;79.89
54554;BME280;40450;55.848;-3.572;2023-06-24T10:45:27;99672.94;;;21.90;77.78
54554;BME280;40450;55.848;-3.572;2023-06-24T10:47:57;99674.23;;;22.45;74.06
54554;BME280;40450;55.848;-3.572;2023-06-24T10:50:28;99673.22;;;23.02;74.28
54554;BME280;40450;55.848;-3.572;2023-06-24T10:52:58;99668.12;;;23.28;73.52
54554;BME280;40450;55.848;-3.572;2023-06-24T10:55:28;99673.96;;;22.81;70.74
54554;BME280;40450;55.848;-3.572;2023-06-24T10:58:07;99676.00;;;22.90;71.68
54554;BME280;40450;55.848;-3.572;2023-06-24T11:00:29;99674.65;;;22.78;72.09
54554;BME280;40450;55.848;-3.572;2023-06-24T11:03:07;99677.25;;;22.75;72.46
54554;BME280;40450;55.848;-3.572;2023-06-24T11:05:31;99672.14;;;22.27;73.55
54554;BME280;40450;55.848;-3.572;2023-06-24T11:08:00;99673.36;;;21.67;75.04
54554;BME280;40450;55.848;-3.572;2023-06-24T11:10:30;99670.78;;;22.01;75.34
54554;BME280;40450;55.848;-3.572;2023-06-24T11:13:05;99662.82;;;21.89;75.47
54554;BME280;40450;55.848;-3.572;2023-06-24T11:15:32;99669.02;;;22.14;76.13
54554;BME280;40450;55.848;-3.572;2023-06-24T11:18:02;99662.16;;;21.98;75.05
54554;BME280;40450;55.848;-3.572;2023-06-24T11:20:32;99657.64;;;21.71;76.18
54554;BME280;40450;55.848;-3.572;2023-06-24T11:23:02;99661.31;;;22.32;74.61
54554;BME280;40450;55.848;-3.572;2023-06-24T11:25:39;99659.72;;;22.18;74.41
54554;BME280;40450;55.848;-3.572;2023-06-24T11:28:03;99658.11;;;22.22;74.09
54554;BME280;40450;55.848;-3.572;2023-06-24T11:30:34;99657.32;;;21.92;74.30
54554;BME280;40450;55.848;-3.572;2023-06-24T11:33:03;99661.61;;;22.03;74.82
54554;BME280;40450;55.848;-3.572;2023-06-24T11:35:34;99662.88;;;22.95;71.76
54554;BME280;40450;55.848;-3.572;2023-06-24T11:38:05;99662.73;;;22.93;70.23
54554;BME280;40450;55.848;-3.572;2023-06-24T11:40:35;99655.52;;;23.61;68.80
54554;BME280;40450;55.848;-3.572;2023-06-24T11:43:07;99661.93;;;22.98;69.69
54554;BME280;40450;55.848;-3.572;2023-06-24T11:45:35;99664.83;;;22.82;70.92
54554;BME280;40450;55.848;-3.572;2023-06-24T11:48:06;99664.50;;;22.66;71.72
54554;BME280;40450;55.848;-3.572;2023-06-24T11:50:36;99667.60;;;22.23;73.31
54554;BME280;40450;55.848;-3.572;2023-06-24T11:53:06;99663.68;;;22.70;73.06
54554;BME280;40450;55.848;-3.572;2023-06-24T11:55:37;99656.48;;;23.43;71.22
54554;BME280;40450;55.848;-3.572;2023-06-24T11:58:07;99652.82;;;23.84;69.94
54554;BME280;40450;55.848;-3.572;2023-06-24T12:00:39;99648.87;;;23.28;69.03
54554;BME280;40450;55.848;-3.572;2023-06-24T12:03:09;99652.02;;;22.72;69.92
54554;BME280;40450;55.848;-3.572;2023-06-24T12:05:39;99655.06;;;22.69;70.79
54554;BME280;40450;55.848;-3.572;2023-06-24T12:08:11;99659.70;;;22.74;70.97
54554;BME280;40450;55.848;-3.572;2023-06-24T12:10:39;99653.35;;;23.56;69.71
54554;BME280;40450;55.848;-3.572;2023-06-24T12:13:14;99654.72;;;23.38;70.27
54554;BME280;40450;55.848;-3.572;2023-06-24T12:15:39;99654.59;;;23.05;70.69
54554;BME280;40450;55.848;-3.572;2023-06-24T12:18:09;99664.19;;;22.90;71.69
54554;BME280;40450;55.848;-3.572;2023-06-24T12:20:40;99658.54;;;23.14;69.93
54554;BME280;40450;55.848;-3.572;2023-06-24T12:23:10;99667.14;;;23.06;69.65
54554;BME280;40450;55.848;-3.572;2023-06-24T12:25:41;99675.39;;;22.93;70.25
54554;BME280;40450;55.848;-3.572;2023-06-24T12:28:11;99678.27;;;22.21;71.69
54554;BME280;40450;55.848;-3.572;2023-06-24T12:30:41;99675.66;;;21.35;75.12
54554;BME280;40450;55.848;-3.572;2023-06-24T12:33:11;99679.08;;;21.41;75.90
54554;BME280;40450;55.848;-3.572;2023-06-24T12:35:41;99677.03;;;22.02;74.18
54554;BME280;40450;55.848;-3.572;2023-06-24T12:38:12;99683.49;;;22.63;73.04
54554;BME280;40450;55.848;-3.572;2023-06-24T12:40:42;99686.97;;;22.90;70.99
54554;BME280;40450;55.848;-3.572;2023-06-24T12:43:12;99689.55;;;22.58;71.59
54554;BME280;40450;55.848;-3.572;2023-06-24T12:45:43;99695.57;;;22.67;71.91
54554;BME280;40450;55.848;-3.572;2023-06-24T12:48:13;99690.05;;;23.27;70.37
54554;BME280;40450;55.848;-3.572;2023-06-24T12:50:43;99688.45;;;23.51;69.57
54554;BME280;40450;55.848;-3.572;2023-06-24T12:53:14;99686.51;;;23.02;69.10
54554;BME280;40450;55.848;-3.572;2023-06-24T12:55:44;99682.54;;;23.44;69.45
54554;BME280;40450;55.848;-3.572;2023-06-24T12:58:19;99686.30;;;22.96;69.88
54554;BME280;40450;55.848;-3.572;2023-06-24T13:00:45;99685.78;;;23.08;68.46
54554;BME280;40450;55.848;-3.572;2023-06-24T13:03:15;99682.48;;;23.58;68.76
54554;BME280;40450;55.848;-3.572;2023-06-24T13:05:45;99685.19;;;23.07;68.84
54554;BME280;40450;55.848;-3.572;2023-06-24T13:08:15;99697.02;;;22.44;72.35
54554;BME280;40450;55.848;-3.572;2023-06-24T13:10:46;99693.84;;;22.47;72.48
54554;BME280;40450;55.848;-3.572;2023-06-24T13:13:16;99689.87;;;21.43;77.02
54554;BME280;40450;55.848;-3.572;2023-06-24T13:15:46;99694.60;;;21.14;78.74